createdAt,value
2018-06-15T00:02:18.355Z,4.2
2018-06-15T00:12:17.584Z,3.7
2018-06-15T00:22:19.089Z,3.6
2018-06-15T00:32:21.342Z,3
2018-06-15T00:42:20.740Z,3
2018-06-15T00:52:20.190Z,4
2018-06-15T01:02:22.168Z,3.4
2018-06-15T01:12:21.816Z,3.1
2018-06-15T01:22:21.028Z,5.6
2018-06-15T01:32:20.306Z,3.5
2018-06-15T01:42:22.258Z,4
2018-06-15T01:52:21.722Z,3.5
2018-06-15T02:02:28.558Z,3.1
2018-06-15T02:12:30.531Z,3.5
2018-06-15T02:22:32.642Z,3
2018-06-15T02:32:31.982Z,4.2
2018-06-15T02:42:34.107Z,3.6
2018-06-15T02:52:36.428Z,3.6
2018-06-15T03:02:38.059Z,3.9
2018-06-15T03:12:38.112Z,4
2018-06-15T03:22:37.427Z,3.6
2018-06-15T03:32:37.108Z,3.8
2018-06-15T03:42:36.561Z,3.5
2018-06-15T03:52:35.793Z,3.9
2018-06-15T04:02:36.099Z,2.8
2018-06-15T04:12:35.234Z,4.1
2018-06-15T04:22:35.216Z,4
2018-06-15T04:32:37.508Z,4.3
2018-06-15T04:42:39.037Z,3.6
2018-06-15T04:52:38.258Z,4
2018-06-15T05:02:37.475Z,3.5
2018-06-15T05:12:37.162Z,4
2018-06-15T05:22:41.557Z,3
2018-06-15T05:32:40.809Z,3.1
2018-06-15T05:42:40.284Z,3.3
2018-06-15T05:52:39.752Z,1.9
2018-06-15T06:02:44.767Z,2.4
2018-06-15T06:12:45.247Z,2.1
2018-06-15T06:22:44.545Z,1.7
2018-06-15T06:32:43.871Z,2
2018-06-15T06:42:43.445Z,2.2
2018-06-15T06:52:43.021Z,2.1
2018-06-15T07:02:42.369Z,2.1
2018-06-15T07:12:45.287Z,2
2018-06-15T07:22:47.481Z,2.3
2018-06-15T07:32:49.896Z,1.5
2018-06-15T07:42:49.535Z,1.6
2018-06-15T07:52:50.469Z,1.9
2018-06-15T08:02:55.359Z,1.8
2018-06-15T08:12:55.216Z,2.2
2018-06-15T08:22:54.807Z,2.5
2018-06-15T08:32:54.074Z,2.3
2018-06-15T08:43:02.268Z,2.7
2018-06-15T08:53:01.528Z,2.3
2018-06-15T09:03:01.074Z,2.7
2018-06-15T09:13:08.408Z,2.6
2018-06-15T09:23:10.710Z,1.9
2018-06-15T09:33:14.148Z,2.4
2018-06-15T09:43:13.676Z,1.8
2018-06-15T09:53:13.001Z,1.6
2018-06-15T10:03:14.886Z,2
2018-06-15T10:13:25.956Z,1.6
2018-06-15T10:23:29.607Z,2.2
2018-06-15T10:33:33.333Z,2.6
2018-06-15T10:43:33.408Z,1.6
2018-06-15T10:53:34.212Z,1.7
2018-06-15T11:03:33.748Z,1.7
2018-06-15T11:13:33.484Z,2.2
2018-06-15T11:23:33.502Z,2
2018-06-15T11:33:33.825Z,1.9
2018-06-15T11:43:36.854Z,1.8
2018-06-15T11:53:42.399Z,1.8
2018-06-15T12:03:42.713Z,2.2
2018-06-15T12:13:42.537Z,1.7
2018-06-15T12:23:44.994Z,2
2018-06-15T12:33:45.895Z,1.7
2018-06-15T12:43:46.021Z,1.7
2018-06-15T12:53:46.477Z,2
2018-06-15T13:03:52.394Z,1.9
2018-06-15T13:14:13.571Z,2
2018-06-15T13:24:19.087Z,1.7
2018-06-15T13:34:31.579Z,1.8
2018-06-15T13:44:38.612Z,1.6
2018-06-15T13:54:50.375Z,1.6
2018-06-15T14:05:08.206Z,1.8
2018-06-15T14:15:13.607Z,2.3
2018-06-15T14:25:27.084Z,1.4
2018-06-15T14:35:44.910Z,1.9
2018-06-15T14:45:52.417Z,1.7
2018-06-15T14:56:02.298Z,1.7
2018-06-15T15:06:15.178Z,1.7
2018-06-15T15:16:16.728Z,2
2018-06-15T15:26:16.581Z,2.1
2018-06-15T15:36:19.040Z,2.3
2018-06-15T15:46:36.795Z,2.1
2018-06-15T15:56:38.733Z,2.8
2018-06-15T16:06:38.164Z,2.2
2018-06-15T16:16:38.322Z,2.1
2018-06-15T16:26:39.160Z,1.8
2018-06-15T16:36:38.498Z,2.5
2018-06-15T16:46:38.404Z,2.4
2018-06-15T16:56:38.949Z,2.5
2018-06-15T17:06:42.048Z,3.2
2018-06-15T17:16:42.390Z,2.7
2018-06-15T17:26:43.548Z,2.9
2018-06-15T17:36:43.675Z,3.1
2018-06-15T17:46:46.334Z,3.6
2018-06-15T17:56:46.301Z,3.9
2018-06-15T18:06:45.646Z,3.3
2018-06-15T18:16:46.550Z,3.7
2018-06-15T18:27:01.163Z,3.3
2018-06-15T18:37:01.662Z,3.7
2018-06-15T18:47:13.927Z,3.2
2018-06-15T18:57:24.859Z,4.3
2018-06-15T19:07:46.798Z,3.4
2018-06-15T19:17:54.004Z,4.1
2018-06-15T19:28:01.355Z,3.4
2018-06-15T19:38:05.551Z,4
2018-06-15T19:48:10.220Z,4
2018-06-15T19:58:11.014Z,4.8
2018-06-15T20:08:22.110Z,5.1
2018-06-15T20:18:31.763Z,5.1
2018-06-15T20:28:37.520Z,4.2
2018-06-15T20:38:38.629Z,5.3
2018-06-15T20:48:40.802Z,5.1
2018-06-15T20:58:40.663Z,5.7
2018-06-15T21:08:46.350Z,5.3
2018-06-15T21:18:49.019Z,4.8
2018-06-15T21:28:57.846Z,5.2
2018-06-15T21:39:23.514Z,6.1
2018-06-15T21:49:49.879Z,7.3
2018-06-15T22:00:16.171Z,5.2
2018-06-15T22:10:38.478Z,5
2018-06-15T22:21:03.972Z,4.3
2018-06-15T22:31:13.997Z,4.5
2018-06-15T22:41:25.778Z,4.2
2018-06-15T22:51:48.035Z,4.9
2018-06-15T23:02:12.138Z,3.5
2018-06-15T23:12:33.816Z,4.9
2018-06-15T23:22:52.431Z,4.3
2018-06-15T23:32:54.980Z,4.6
2018-06-15T23:43:14.483Z,4.6
2018-06-15T23:53:22.209Z,4.8
